Time;durP1;ratioP1;P1;durP2;ratioP2;P2;SDS_P1;SDS_P2;PMS_P1;PMS_P2;Temp;Humidity;BMP_temperature;BMP_pressure;BME280_temperature;BME280_humidity;BME280_pressure;Samples;Min_cycle;Max_cycle;Signal;HPM_P1;HPM_P2
2023/12/12 00:00:29;;;;;;;4.82;1.25;;;10.30;99.90;;;;;;5013862;28;20868;-23
2023/12/12 00:02:59;;;;;;;5.32;1.40;;;10.30;99.90;;;;;;5013826;28;20227;-23
2023/12/12 00:05:25;;;;;;;4.57;1.30;;;10.30;99.90;;;;;;5028011;28;20032;-23
2023/12/12 00:07:51;;;;;;;6.37;1.80;;;10.30;99.90;;;;;;5001307;28;20269;-22
2023/12/12 00:10:17;;;;;;;3.58;1.20;;;10.30;99.90;;;;;;5012923;28;20029;-22
2023/12/12 00:12:44;;;;;;;3.50;1.20;;;10.20;99.90;;;;;;5013446;28;20407;-22
2023/12/12 00:15:10;;;;;;;4.50;1.20;;;10.20;99.90;;;;;;5025415;28;20111;-22
2023/12/12 00:17:38;;;;;;;9.20;1.40;;;10.20;99.90;;;;;;5017422;28;20032;-22
2023/12/12 00:20:07;;;;;;;4.47;1.30;;;10.20;99.90;;;;;;5012189;28;20427;-23
2023/12/12 00:22:33;;;;;;;5.63;1.10;;;10.10;99.90;;;;;;5027646;28;20064;-22
2023/12/12 00:24:59;;;;;;;6.60;1.50;;;10.00;99.90;;;;;;5019531;28;20132;-22
2023/12/12 00:27:25;;;;;;;4.68;1.30;;;10.00;99.90;;;;;;5015054;28;20104;-23
2023/12/12 00:29:51;;;;;;;6.40;1.40;;;10.00;99.90;;;;;;5024718;28;20057;-22
2023/12/12 00:32:16;;;;;;;6.30;1.33;;;9.90;99.90;;;;;;5005746;28;20507;-23
2023/12/12 00:34:42;;;;;;;4.80;1.50;;;9.90;99.90;;;;;;5025516;28;20108;-22
2023/12/12 00:37:09;;;;;;;4.07;1.20;;;9.80;99.90;;;;;;5024815;28;20224;-23
2023/12/12 00:39:39;;;;;;;6.45;1.20;;;9.70;99.90;;;;;;5004378;28;20072;-22
2023/12/12 00:42:05;;;;;;;4.95;1.33;;;9.70;99.90;;;;;;5011058;28;21131;-22
2023/12/12 00:44:31;;;;;;;5.63;1.33;;;9.70;99.90;;;;;;5026409;28;20039;-22
2023/12/12 00:46:57;;;;;;;4.33;1.20;;;9.60;99.90;;;;;;5012471;28;20060;-22
2023/12/12 00:49:23;;;;;;;5.05;1.30;;;9.50;99.90;;;;;;4993719;28;20013;-22
2023/12/12 00:51:48;;;;;;;4.18;1.40;;;12.00;99.90;;;;;;5022562;28;20029;-22
2023/12/12 00:54:14;;;;;;;2.97;1.00;;;9.50;99.90;;;;;;5031066;28;20142;-22
2023/12/12 00:56:40;;;;;;;4.85;1.25;;;9.30;99.90;;;;;;5022961;28;20079;-22
2023/12/12 00:59:06;;;;;;;6.17;1.40;;;9.40;99.90;;;;;;5016201;28;20084;-22
2023/12/12 01:01:31;;;;;;;5.38;1.20;;;9.40;99.90;;;;;;5033511;28;20513;-22
2023/12/12 01:03:57;;;;;;;5.73;1.60;;;9.40;99.90;;;;;;5016038;28;20725;-22
2023/12/12 01:06:24;;;;;;;7.93;1.40;;;9.30;99.90;;;;;;5030565;28;20033;-23
2023/12/12 01:08:50;;;;;;;4.97;1.30;;;9.30;99.90;;;;;;5030404;28;20800;-23
2023/12/12 01:11:19;;;;;;;6.03;1.30;;;9.30;99.90;;;;;;5026466;28;20486;-23
2023/12/12 01:13:46;;;;;;;6.30;1.40;;;9.30;99.90;;;;;;4990979;28;21034;-22
2023/12/12 01:16:12;;;;;;;6.53;1.40;;;9.30;99.90;;;;;;5004220;28;20108;-22
2023/12/12 01:18:38;;;;;;;7.30;1.30;;;9.30;99.90;;;;;;5008173;28;20065;-23
2023/12/12 01:21:04;;;;;;;4.13;1.13;;;9.40;99.90;;;;;;5027973;28;20602;-23
2023/12/12 01:23:49;;;;;;;4.97;1.40;;;9.40;99.90;;;;;;4994392;28;20056;-23
2023/12/12 01:26:15;;;;;;;5.55;1.17;;;9.40;99.90;;;;;;5024560;28;20053;-22
2023/12/12 01:28:41;;;;;;;3.78;1.10;;;9.40;99.90;;;;;;5004884;28;20029;-22
2023/12/12 01:31:07;;;;;;;5.40;1.10;;;9.40;99.90;;;;;;5007201;28;20056;-22
2023/12/12 01:33:33;;;;;;;4.18;1.30;;;9.40;99.90;;;;;;5028474;28;20100;-23
2023/12/12 01:35:59;;;;;;;4.68;1.15;;;9.40;99.90;;;;;;4973882;28;20272;-23
2023/12/12 01:38:25;;;;;;;4.23;1.37;;;9.40;99.90;;;;;;5032212;28;20059;-23
2023/12/12 01:40:51;;;;;;;3.72;1.25;;;9.50;99.90;;;;;;5022527;28;20029;-20
2023/12/12 01:43:28;;;;;;;4.43;1.20;;;9.50;99.90;;;;;;4997673;28;20056;-20
2023/12/12 01:45:56;;;;;;;4.80;1.42;;;9.50;99.90;;;;;;4996412;28;20620;-19
2023/12/12 01:48:23;;;;;;;6.03;1.38;;;9.50;99.90;;;;;;5018342;28;20390;-20
2023/12/12 01:50:51;;;;;;;5.47;1.40;;;9.60;99.90;;;;;;5014810;28;20577;-20
2023/12/12 01:53:19;;;;;;;4.47;1.60;;;9.60;99.90;;;;;;5030844;28;20734;-23
2023/12/12 01:55:49;;;;;;;3.27;1.50;;;9.60;99.90;;;;;;5023042;28;20111;-22
2023/12/12 01:58:16;;;;;;;3.80;1.20;;;9.60;99.90;;;;;;5019864;28;20474;-22
2023/12/12 02:00:42;;;;;;;4.35;1.27;;;9.70;99.90;;;;;;4986703;28;20489;-22
2023/12/12 02:03:08;;;;;;;6.00;1.40;;;9.70;99.90;;;;;;5026673;28;20411;-22
2023/12/12 02:05:38;;;;;;;4.33;1.20;;;9.80;99.90;;;;;;5018648;28;20032;-22
2023/12/12 02:08:04;;;;;;;6.20;1.25;;;9.80;99.90;;;;;;5011378;28;20024;-23
2023/12/12 02:10:30;;;;;;;3.88;1.23;;;10.70;99.90;;;;;;5027987;28;20033;-23
2023/12/12 02:12:56;;;;;;;4.95;1.50;;;9.90;99.90;;;;;;5021465;28;20686;-22
2023/12/12 02:15:23;;;;;;;5.30;1.30;;;9.90;99.90;;;;;;5030771;28;20029;-22
2023/12/12 02:17:49;;;;;;;5.93;1.50;;;10.00;99.90;;;;;;5014198;28;20422;-22
2023/12/12 02:20:15;;;;;;;4.50;1.20;;;10.00;99.90;;;;;;5019799;28;20562;-22
2023/12/12 02:22:42;;;;;;;7.05;1.63;;;10.00;99.90;;;;;;5029164;28;20017;-22
2023/12/12 02:25:09;;;;;;;7.78;1.92;;;10.10;99.90;;;;;;5012474;28;20536;-22
2023/12/12 02:27:36;;;;;;;7.38;1.65;;;10.10;99.90;;;;;;5026339;28;20072;-22
2023/12/12 02:30:03;;;;;;;2.93;1.23;;;10.10;99.90;;;;;;5017614;28;20294;-23
2023/12/12 02:32:29;;;;;;;4.38;1.25;;;10.10;99.90;;;;;;5002324;28;20056;-22
2023/12/12 02:34:55;;;;;;;9.30;1.63;;;10.20;99.90;;;;;;5013629;28;20397;-23
2023/12/12 02:37:21;;;;;;;6.43;1.40;;;10.20;99.90;;;;;;5015848;28;20043;-23
2023/12/12 02:39:46;;;;;;;6.38;1.70;;;10.20;99.90;;;;;;4991507;28;20037;-22
2023/12/12 02:42:12;;;;;;;6.82;1.20;;;10.30;99.90;;;;;;5029432;28;20569;-22
2023/12/12 02:44:38;;;;;;;4.77;1.27;;;10.30;99.90;;;;;;5022336;28;20108;-22
2023/12/12 02:47:04;;;;;;;5.85;1.15;;;10.30;99.90;;;;;;5016447;28;20029;-23
2023/12/12 02:49:30;;;;;;;5.15;1.63;;;10.40;99.90;;;;;;5012565;28;20088;-22
2023/12/12 02:51:56;;;;;;;4.30;1.20;;;10.40;99.90;;;;;;5016847;28;20757;-22
2023/12/12 02:54:22;;;;;;;5.95;1.30;;;10.40;99.90;;;;;;5000641;28;20037;-23
2023/12/12 02:56:48;;;;;;;4.43;1.10;;;10.50;99.90;;;;;;5026866;28;20502;-22
2023/12/12 02:59:13;;;;;;;5.33;1.27;;;10.50;99.90;;;;;;5026837;28;20506;-22
2023/12/12 03:01:39;;;;;;;4.05;1.27;;;10.50;99.90;;;;;;5004728;28;20525;-22
2023/12/12 03:04:05;;;;;;;4.67;1.47;;;10.50;99.90;;;;;;5020984;28;20633;-23
2023/12/12 03:06:30;;;;;;;4.43;1.10;;;10.50;99.90;;;;;;4989107;28;20032;-22
2023/12/12 03:08:56;;;;;;;6.03;1.40;;;10.60;99.90;;;;;;5029172;28;20410;-23
2023/12/12 03:11:22;;;;;;;5.28;1.40;;;10.60;99.90;;;;;;5030814;28;20701;-22
2023/12/12 03:13:48;;;;;;;7.47;1.40;;;10.60;99.90;;;;;;4988430;28;20021;-22
2023/12/12 03:16:13;;;;;;;5.65;1.60;;;10.70;99.90;;;;;;5010800;28;20096;-22
2023/12/12 03:18:39;;;;;;;4.72;1.88;;;10.60;99.90;;;;;;5011408;28;20071;-22
2023/12/12 03:21:05;;;;;;;5.10;1.57;;;10.60;99.90;;;;;;5027250;28;20439;-23
2023/12/12 03:23:31;;;;;;;3.50;1.23;;;10.60;99.90;;;;;;5017002;28;20052;-22
2023/12/12 03:25:57;;;;;;;6.47;1.60;;;10.70;99.90;;;;;;5025230;28;20034;-22
2023/12/12 03:28:24;;;;;;;7.13;1.33;;;10.70;99.90;;;;;;5030211;28;20272;-23
2023/12/12 03:30:50;;;;;;;3.55;1.20;;;10.70;99.90;;;;;;5018475;28;20502;-22
2023/12/12 03:33:16;;;;;;;4.40;1.30;;;10.70;99.90;;;;;;5026480;28;20040;-22
2023/12/12 03:35:42;;;;;;;6.47;1.80;;;10.70;99.90;;;;;;5012397;28;20283;-22
2023/12/12 03:38:07;;;;;;;5.55;1.40;;;10.70;99.90;;;;;;5017264;28;20303;-22
2023/12/12 03:40:33;;;;;;;6.53;1.60;;;10.70;99.90;;;;;;5024392;28;20034;-22
2023/12/12 03:42:59;;;;;;;5.18;1.30;;;10.80;99.90;;;;;;5026389;28;20603;-23
2023/12/12 03:45:25;;;;;;;9.67;1.90;;;10.80;99.90;;;;;;5025744;28;20033;-22
2023/12/12 03:47:50;;;;;;;4.32;1.63;;;10.80;99.90;;;;;;5013158;28;20022;-22
2023/12/12 03:50:16;;;;;;;3.43;1.00;;;10.80;99.90;;;;;;4983449;28;20112;-22
2023/12/12 03:52:42;;;;;;;6.80;1.30;;;10.80;99.90;;;;;;5017672;28;20544;-22
2023/12/12 03:55:08;;;;;;;5.90;1.20;;;10.80;99.90;;;;;;5010039;28;20258;-22
2023/12/12 03:57:34;;;;;;;4.63;1.00;;;10.80;99.90;;;;;;5027161;28;20021;-22
2023/12/12 04:00:00;;;;;;;3.92;1.23;;;10.80;99.90;;;;;;5022106;28;20260;-22
2023/12/12 04:02:26;;;;;;;3.33;0.98;;;10.90;99.90;;;;;;5027390;28;20020;-19
2023/12/12 04:04:52;;;;;;;5.63;1.03;;;10.90;99.90;;;;;;4996037;28;20285;-20
2023/12/12 04:07:18;;;;;;;5.20;1.00;;;10.90;99.90;;;;;;5028445;28;20502;-19
2023/12/12 04:09:44;;;;;;;7.18;1.13;;;10.90;99.90;;;;;;5014577;28;20082;-21
2023/12/12 04:12:10;;;;;;;4.10;1.10;;;10.90;99.90;;;;;;5018657;28;20804;-20
2023/12/12 04:14:36;;;;;;;4.07;1.00;;;11.00;99.90;;;;;;5024993;28;20036;-20
2023/12/12 04:17:03;;;;;;;5.90;1.20;;;10.90;99.90;;;;;;5021944;28;20132;-19
2023/12/12 04:19:29;;;;;;;4.03;1.08;;;11.00;99.90;;;;;;5025114;28;20470;-20
2023/12/12 04:21:54;;;;;;;5.68;1.20;;;10.90;99.90;;;;;;4992038;28;20235;-20
2023/12/12 04:24:20;;;;;;;5.15;1.30;;;11.00;99.90;;;;;;5016060;28;20112;-19
2023/12/12 04:26:46;;;;;;;5.03;1.00;;;11.00;99.90;;;;;;4981370;28;20045;-19
2023/12/12 04:29:12;;;;;;;5.53;1.10;;;11.00;99.90;;;;;;5008067;28;20465;-20
2023/12/12 04:31:38;;;;;;;4.77;1.27;;;11.00;99.90;;;;;;5022228;28;20023;-19
2023/12/12 04:34:04;;;;;;;7.22;1.65;;;11.00;99.90;;;;;;5000492;28;20039;-20
2023/12/12 04:36:29;;;;;;;3.03;1.00;;;11.00;99.90;;;;;;5014468;28;20245;-20
2023/12/12 04:38:55;;;;;;;4.77;1.30;;;11.10;99.90;;;;;;5002660;28;20290;-19
2023/12/12 04:41:21;;;;;;;5.47;1.40;;;11.10;99.90;;;;;;5014980;28;20025;-20
2023/12/12 04:43:47;;;;;;;4.33;1.30;;;11.10;99.90;;;;;;5026284;28;20030;-19
2023/12/12 04:46:21;;;;;;;6.07;1.25;;;11.10;99.90;;;;;;4979780;28;20048;-20
2023/12/12 04:48:47;;;;;;;4.68;1.40;;;11.10;99.90;;;;;;5021004;28;20124;-19
2023/12/12 04:51:14;;;;;;;4.50;1.23;;;11.10;99.90;;;;;;5011604;28;20377;-20
2023/12/12 04:53:39;;;;;;;4.03;1.30;;;11.20;99.90;;;;;;5016341;28;20851;-19
2023/12/12 04:56:06;;;;;;;4.53;1.17;;;11.10;99.90;;;;;;5015847;28;20029;-20
2023/12/12 04:58:31;;;;;;;6.80;1.17;;;11.20;99.90;;;;;;5014511;28;20064;-20
2023/12/12 05:00:57;;;;;;;6.17;1.40;;;11.20;99.90;;;;;;4998896;28;20048;-20
2023/12/12 05:03:23;;;;;;;4.00;1.25;;;11.20;99.90;;;;;;5021419;28;20228;-20
2023/12/12 05:05:48;;;;;;;5.57;1.50;;;11.20;99.90;;;;;;5029881;28;20028;-20
2023/12/12 05:08:14;;;;;;;6.00;1.25;;;11.20;99.90;;;;;;5009656;28;20108;-20
2023/12/12 05:10:41;;;;;;;4.47;1.43;;;11.30;99.90;;;;;;5002759;28;20027;-20
2023/12/12 05:13:07;;;;;;;5.80;1.40;;;11.30;99.90;;;;;;5021879;28;20475;-22
2023/12/12 05:15:33;;;;;;;7.30;1.67;;;11.30;99.90;;;;;;5016479;28;20037;-23
2023/12/12 05:17:59;;;;;;;7.23;1.23;;;11.30;99.90;;;;;;5025566;28;20617;-22
2023/12/12 05:20:25;;;;;;;6.43;1.30;;;11.30;99.90;;;;;;5022089;28;20481;-23
2023/12/12 05:22:50;;;;;;;7.60;1.55;;;11.30;99.90;;;;;;5010321;28;20033;-20
2023/12/12 05:25:16;;;;;;;5.57;1.27;;;11.30;99.90;;;;;;4985430;28;20160;-20
2023/12/12 05:27:42;;;;;;;4.63;1.30;;;11.30;99.90;;;;;;5010180;28;20420;-20
2023/12/12 05:30:08;;;;;;;8.60;1.47;;;11.30;99.90;;;;;;5006338;28;20021;-21
2023/12/12 05:32:34;;;;;;;6.90;1.70;;;11.30;99.90;;;;;;5031301;28;20280;-20
2023/12/12 05:34:59;;;;;;;4.07;1.10;;;10.60;99.90;;;;;;5026367;28;20037;-21
2023/12/12 05:37:25;;;;;;;9.60;2.20;;;11.30;99.90;;;;;;5030281;28;20115;-20
2023/12/12 05:39:51;;;;;;;6.38;1.40;;;11.30;99.90;;;;;;5016812;28;20479;-20
2023/12/12 05:42:18;;;;;;;5.60;1.40;;;11.30;99.90;;;;;;5019914;28;20119;-20
2023/12/12 05:44:44;;;;;;;7.38;1.25;;;11.30;99.90;;;;;;5021376;28;20040;-20
2023/12/12 05:47:09;;;;;;;3.40;1.25;;;11.30;99.90;;;;;;4995809;28;20025;-21
2023/12/12 05:49:35;;;;;;;3.63;1.20;;;11.20;99.90;;;;;;5026934;28;20025;-20
2023/12/12 05:52:04;;;;;;;6.07;1.30;;;11.30;99.90;;;;;;5013196;28;20127;-21
2023/12/12 05:54:29;;;;;;;3.50;1.17;;;11.30;99.90;;;;;;5020296;28;20041;-19
2023/12/12 05:56:55;;;;;;;6.20;1.53;;;11.20;99.90;;;;;;5019508;28;20383;-20
2023/12/12 05:59:21;;;;;;;8.25;1.77;;;11.30;99.90;;;;;;5014281;28;20571;-20
2023/12/12 06:01:47;;;;;;;4.37;1.20;;;11.20;99.90;;;;;;5016360;28;20044;-21
2023/12/12 06:04:14;;;;;;;4.07;1.20;;;11.20;99.90;;;;;;5002860;28;20703;-20
2023/12/12 06:06:43;;;;;;;5.60;1.45;;;11.20;99.90;;;;;;5016913;28;20033;-20
2023/12/12 06:09:10;;;;;;;3.95;1.17;;;11.20;99.90;;;;;;5030944;28;20017;-19
2023/12/12 06:11:37;;;;;;;7.30;2.05;;;11.20;99.90;;;;;;5000583;28;20035;-20
2023/12/12 06:14:03;;;;;;;4.30;1.17;;;11.20;99.90;;;;;;5027559;28;20037;-20
2023/12/12 06:16:30;;;;;;;8.43;1.90;;;11.20;99.90;;;;;;5016234;28;20082;-20
2023/12/12 06:18:56;;;;;;;5.45;1.40;;;11.20;99.90;;;;;;5016664;28;20035;-19
2023/12/12 06:21:22;;;;;;;5.18;1.30;;;11.10;99.90;;;;;;5013890;28;20064;-20
2023/12/12 06:23:48;;;;;;;6.57;1.95;;;11.20;99.90;;;;;;5020227;28;20112;-20
2023/12/12 06:26:15;;;;;;;3.00;1.20;;;11.10;99.90;;;;;;5018358;28;20054;-20
2023/12/12 06:28:41;;;;;;;4.82;1.50;;;11.10;99.90;;;;;;5004441;28;20033;-20
2023/12/12 06:31:07;;;;;;;4.18;1.38;;;11.10;99.90;;;;;;4997755;28;20322;-19
2023/12/12 06:33:34;;;;;;;4.68;1.30;;;11.10;99.90;;;;;;5001748;28;20033;-22
2023/12/12 06:35:59;;;;;;;3.97;1.27;;;11.10;99.90;;;;;;5024284;28;20037;-23
2023/12/12 06:38:26;;;;;;;3.17;1.08;;;11.10;99.90;;;;;;5017787;28;20215;-22
2023/12/12 06:40:52;;;;;;;4.35;1.30;;;11.10;99.90;;;;;;5028941;28;20434;-22
2023/12/12 06:43:17;;;;;;;5.60;1.42;;;11.00;99.90;;;;;;4990723;28;20753;-23
2023/12/12 06:45:43;;;;;;;3.50;1.20;;;11.00;99.90;;;;;;5029830;28;20026;-22
2023/12/12 06:48:11;;;;;;;4.15;1.25;;;11.00;99.90;;;;;;5015576;28;20313;-22
2023/12/12 06:50:37;;;;;;;6.55;1.40;;;11.10;99.90;;;;;;5030410;28;20053;-23
2023/12/12 06:53:03;;;;;;;4.25;1.30;;;11.10;99.90;;;;;;4998164;28;20086;-22
2023/12/12 06:55:29;;;;;;;4.23;1.20;;;11.10;99.90;;;;;;5028657;28;20033;-22
2023/12/12 06:57:54;;;;;;;3.67;1.20;;;11.10;99.90;;;;;;5011869;28;20021;-22
2023/12/12 07:00:21;;;;;;;5.57;1.50;;;11.10;99.90;;;;;;5021466;28;20029;-23
2023/12/12 07:02:47;;;;;;;5.03;1.20;;;11.10;99.90;;;;;;5013341;28;20128;-23
2023/12/12 07:05:15;;;;;;;3.78;1.48;;;11.10;99.90;;;;;;5025982;28;20078;-22
2023/12/12 07:07:41;;;;;;;3.67;1.30;;;11.10;99.90;;;;;;5021922;28;20036;-23
2023/12/12 07:10:07;;;;;;;6.93;1.20;;;11.10;99.90;;;;;;5004537;28;20640;-22
2023/12/12 07:12:33;;;;;;;5.05;1.17;;;11.10;99.90;;;;;;4977466;28;20044;-23
2023/12/12 07:14:59;;;;;;;5.15;1.30;;;11.10;99.90;;;;;;5005338;28;20033;-22
2023/12/12 07:17:25;;;;;;;4.67;1.47;;;12.50;99.90;;;;;;5026672;28;20295;-23
2023/12/12 07:19:50;;;;;;;4.93;1.25;;;11.10;99.90;;;;;;5027492;28;20032;-22
2023/12/12 07:22:16;;;;;;;5.60;1.50;;;11.10;99.90;;;;;;4992348;28;20028;-22
2023/12/12 07:24:42;;;;;;;3.95;1.40;;;11.10;99.90;;;;;;5019866;28;20856;-23
2023/12/12 07:27:09;;;;;;;4.03;1.15;;;11.10;99.90;;;;;;5011932;28;20123;-22
2023/12/12 07:29:34;;;;;;;4.47;1.40;;;11.10;99.90;;;;;;5023683;28;20087;-22
2023/12/12 07:32:00;;;;;;;4.65;1.67;;;11.10;99.90;;;;;;5004912;28;20025;-22
2023/12/12 07:34:26;;;;;;;2.70;1.00;;;11.00;99.90;;;;;;5025601;28;20499;-20
2023/12/12 07:36:51;;;;;;;4.28;1.30;;;11.00;99.90;;;;;;5030528;28;20032;-20
2023/12/12 07:39:17;;;;;;;3.15;1.35;;;11.00;99.90;;;;;;5010449;28;20228;-19
2023/12/12 07:41:43;;;;;;;3.03;1.13;;;10.90;99.90;;;;;;5026244;28;20063;-20
2023/12/12 07:44:09;;;;;;;4.35;1.27;;;10.90;99.90;;;;;;5012941;28;20029;-22
2023/12/12 07:46:38;;;;;;;6.57;1.77;;;10.90;99.90;;;;;;5019626;28;20021;-22
2023/12/12 07:49:07;;;;;;;3.70;1.17;;;10.90;99.90;;;;;;4996717;28;20599;-22
2023/12/12 07:51:33;;;;;;;3.67;1.33;;;10.90;99.90;;;;;;5026130;28;20382;-22
2023/12/12 07:54:03;;;;;;;2.65;1.05;;;10.90;99.90;;;;;;5003855;28;20069;-22
2023/12/12 07:56:29;;;;;;;4.85;1.58;;;10.90;99.90;;;;;;5007251;28;20386;-23
2023/12/12 07:58:55;;;;;;;5.00;1.50;;;11.00;99.90;;;;;;5012063;28;20025;-22
2023/12/12 08:01:21;;;;;;;4.28;1.40;;;11.00;99.90;;;;;;5015683;28;20051;-22
2023/12/12 08:03:47;;;;;;;4.93;1.73;;;11.10;99.90;;;;;;5015754;28;20036;-23
2023/12/12 08:06:13;;;;;;;2.38;0.88;;;11.10;99.90;;;;;;5026437;28;20138;-23
2023/12/12 08:08:38;;;;;;;3.92;1.17;;;11.20;99.90;;;;;;5012844;28;20029;-23
2023/12/12 08:11:04;;;;;;;3.27;1.17;;;11.20;99.90;;;;;;4998084;28;20104;-23
2023/12/12 08:13:30;;;;;;;3.60;1.23;;;11.30;99.90;;;;;;5023355;28;20041;-23
2023/12/12 08:16:15;;;;;;;2.97;1.15;;;11.40;99.90;;;;;;4982855;28;20121;-22
2023/12/12 08:18:40;;;;;;;2.72;1.08;;;11.40;99.90;;;;;;5007604;28;20022;-23
2023/12/12 08:21:09;;;;;;;3.47;1.37;;;11.50;99.90;;;;;;4972996;28;20113;-23
2023/12/12 08:23:37;;;;;;;4.85;1.25;;;11.50;99.90;;;;;;5005926;28;20099;-23
2023/12/12 08:26:05;;;;;;;4.90;1.27;;;11.60;99.90;;;;;;5023211;28;20294;-23
2023/12/12 08:28:31;;;;;;;5.40;1.65;;;11.70;99.90;;;;;;5026713;28;20108;-22
2023/12/12 08:30:57;;;;;;;4.32;1.17;;;11.80;99.90;;;;;;5012890;28;20064;-23
2023/12/12 08:33:23;;;;;;;4.10;1.40;;;11.90;99.90;;;;;;4967105;28;20118;-22
2023/12/12 08:35:49;;;;;;;3.60;1.60;;;12.00;99.90;;;;;;4997798;28;20553;-22
2023/12/12 08:38:15;;;;;;;3.58;1.30;;;12.10;99.90;;;;;;5026717;28;20029;-22
2023/12/12 08:40:41;;;;;;;4.03;1.17;;;12.20;99.90;;;;;;5018165;28;20189;-23
2023/12/12 08:43:06;;;;;;;3.85;1.17;;;12.20;99.90;;;;;;5027522;28;20482;-20
2023/12/12 08:45:33;;;;;;;3.07;1.30;;;12.20;99.90;;;;;;5010165;28;20175;-20
2023/12/12 08:47:59;;;;;;;2.10;1.00;;;12.10;99.90;;;;;;5014959;28;20088;-20
2023/12/12 08:50:25;;;;;;;2.40;1.10;;;12.20;99.90;;;;;;5016401;28;20474;-21
2023/12/12 08:52:51;;;;;;;4.67;1.13;;;12.20;99.90;;;;;;5023132;28;20518;-20
2023/12/12 08:55:16;;;;;;;3.58;1.30;;;12.30;99.90;;;;;;4958907;28;20483;-21
2023/12/12 08:57:43;;;;;;;2.97;1.20;;;12.30;99.90;;;;;;5023552;28;20032;-20
2023/12/12 09:00:12;;;;;;;3.28;1.17;;;12.30;99.90;;;;;;5015932;28;20382;-20
2023/12/12 09:02:39;;;;;;;3.85;1.20;;;12.30;99.90;;;;;;5014200;28;20240;-20
2023/12/12 09:05:06;;;;;;;3.13;1.15;;;12.30;99.90;;;;;;4998508;28;20047;-20
2023/12/12 09:07:33;;;;;;;3.27;1.37;;;12.30;99.90;;;;;;4996925;28;20043;-20
2023/12/12 09:10:00;;;;;;;3.83;1.23;;;12.30;99.90;;;;;;5027932;28;20018;-20
2023/12/12 09:12:26;;;;;;;2.88;1.15;;;12.30;99.90;;;;;;4999786;28;20516;-21
2023/12/12 09:14:52;;;;;;;2.95;1.40;;;12.30;99.90;;;;;;5003319;28;20033;-20
2023/12/12 09:17:17;;;;;;;3.73;1.23;;;11.70;99.90;;;;;;5015623;28;20029;-21
2023/12/12 09:19:43;;;;;;;2.57;1.10;;;12.30;99.90;;;;;;5017015;28;20172;-20
2023/12/12 09:22:09;;;;;;;3.00;1.23;;;12.30;99.90;;;;;;5009993;28;20847;-20
2023/12/12 09:24:35;;;;;;;3.53;1.20;;;12.30;99.90;;;;;;5026895;28;20033;-20
2023/12/12 09:27:01;;;;;;;1.83;0.90;;;12.30;99.90;;;;;;4991301;28;20687;-20
2023/12/12 09:29:27;;;;;;;3.28;1.50;;;12.40;99.90;;;;;;4980214;28;20395;-21
2023/12/12 09:31:52;;;;;;;3.43;1.30;;;12.40;99.90;;;;;;4998595;28;20022;-20
2023/12/12 09:34:18;;;;;;;3.03;1.17;;;12.40;99.90;;;;;;5005857;28;20034;-21
2023/12/12 09:36:44;;;;;;;3.87;1.10;;;12.40;99.90;;;;;;5000378;28;20322;-20
2023/12/12 09:39:10;;;;;;;4.55;1.40;;;12.40;99.90;;;;;;5001515;28;20076;-20
2023/12/12 09:41:36;;;;;;;3.45;1.30;;;12.40;99.90;;;;;;4984387;28;20025;-19
2023/12/12 09:44:03;;;;;;;2.67;1.30;;;12.50;99.90;;;;;;5011032;28;20487;-19
2023/12/12 09:46:30;;;;;;;4.13;1.30;;;12.50;99.90;;;;;;4995425;28;20643;-21
2023/12/12 09:48:58;;;;;;;2.67;1.20;;;12.50;99.90;;;;;;4984631;28;20030;-20
2023/12/12 09:51:25;;;;;;;3.30;1.55;;;12.50;99.90;;;;;;4980836;28;20582;-21
2023/12/12 09:53:52;;;;;;;3.33;1.10;;;12.60;99.90;;;;;;4968385;28;20144;-20
2023/12/12 09:56:18;;;;;;;2.30;1.20;;;12.80;99.90;;;;;;4990621;28;20681;-20
2023/12/12 09:58:48;;;;;;;2.17;1.13;;;12.60;99.90;;;;;;4969274;28;20029;-20
2023/12/12 10:01:15;;;;;;;2.60;1.20;;;12.70;99.90;;;;;;4992486;28;20045;-20
2023/12/12 10:03:41;;;;;;;3.13;1.40;;;12.80;99.90;;;;;;4989866;28;20026;-23
2023/12/12 10:06:13;;;;;;;3.00;1.43;;;12.80;99.90;;;;;;5002926;28;20664;-23
2023/12/12 10:08:40;;;;;;;2.33;1.20;;;12.80;99.90;;;;;;4994018;28;20029;-22
2023/12/12 10:11:07;;;;;;;3.92;1.40;;;12.90;99.90;;;;;;5014286;28;20684;-23
2023/12/12 10:13:54;;;;;;;2.10;1.20;;;12.90;99.90;;;;;;4995986;28;20502;-23
2023/12/12 10:16:20;;;;;;;4.18;1.58;;;13.00;99.90;;;;;;5001900;28;20041;-22
2023/12/12 10:18:46;;;;;;;2.40;1.17;;;13.10;99.90;;;;;;4991628;28;20100;-22
2023/12/12 10:21:22;;;;;;;2.17;1.15;;;13.10;99.90;;;;;;5015169;28;20020;-23
2023/12/12 10:23:50;;;;;;;2.03;1.30;;;13.20;99.90;;;;;;5002461;28;20040;-23
2023/12/12 10:26:21;;;;;;;3.47;1.00;;;13.30;99.90;;;;;;5010375;28;20713;-23
2023/12/12 10:28:47;;;;;;;1.77;0.95;;;13.40;99.90;;;;;;5012932;28;20032;-23
2023/12/12 10:31:13;;;;;;;2.47;1.10;;;13.60;99.90;;;;;;4994337;28;20037;-23
2023/12/12 10:33:39;;;;;;;1.70;1.17;;;13.60;99.90;;;;;;5014981;28;20032;-23
2023/12/12 10:36:10;;;;;;;2.47;1.10;;;13.70;99.90;;;;;;5000532;28;20024;-23
2023/12/12 10:38:38;;;;;;;2.05;1.10;;;13.80;99.90;;;;;;5023000;28;20032;-23
2023/12/12 10:41:14;;;;;;;1.95;1.08;;;13.80;99.90;;;;;;5031123;28;20025;-23
2023/12/12 10:43:41;;;;;;;1.70;1.17;;;13.80;99.90;;;;;;5019528;28;20095;-22
2023/12/12 10:46:18;;;;;;;1.80;1.08;;;13.80;99.90;;;;;;5024564;28;20393;-23
2023/12/12 10:48:46;;;;;;;1.90;1.00;;;13.80;99.90;;;;;;5022505;28;20024;-22
2023/12/12 10:51:13;;;;;;;2.85;1.10;;;13.80;99.90;;;;;;5019649;28;20021;-23
2023/12/12 10:53:44;;;;;;;3.85;1.42;;;13.70;99.90;;;;;;5021062;28;20025;-22
2023/12/12 10:56:12;;;;;;;1.88;1.05;;;13.70;99.90;;;;;;5027058;28;20557;-23
2023/12/12 10:58:40;;;;;;;1.77;0.95;;;13.60;99.90;;;;;;5022314;28;20363;-23
2023/12/12 11:01:08;;;;;;;2.57;1.37;;;13.70;99.90;;;;;;5001799;28;20194;-23
2023/12/12 11:03:36;;;;;;;1.70;1.15;;;13.70;99.90;;;;;;5025438;28;20060;-23
2023/12/12 11:06:03;;;;;;;1.23;0.88;;;13.70;99.90;;;;;;5011952;28;20033;-23
2023/12/12 11:08:30;;;;;;;3.22;1.00;;;13.80;99.90;;;;;;5011787;28;20095;-23
2023/12/12 11:10:56;;;;;;;1.30;0.90;;;13.70;99.90;;;;;;5015863;28;20025;-23
2023/12/12 11:13:32;;;;;;;1.67;1.10;;;13.80;99.90;;;;;;5011694;28;20541;-20
2023/12/12 11:16:01;;;;;;;2.03;1.05;;;13.80;99.90;;;;;;5001685;28;20134;-20
2023/12/12 11:18:26;;;;;;;2.45;0.90;;;13.80;99.90;;;;;;5014949;28;20445;-21
2023/12/12 11:20:53;;;;;;;1.87;1.10;;;13.80;99.90;;;;;;5000641;28;20202;-20
2023/12/12 11:23:52;;;;;;;1.87;1.00;;;13.80;99.90;;;;;;5015063;28;20358;-21
2023/12/12 11:26:19;;;;;;;2.60;1.10;;;13.90;99.90;;;;;;5010028;28;20743;-21
2023/12/12 11:28:47;;;;;;;1.77;1.00;;;13.90;99.90;;;;;;4996392;28;20457;-21
2023/12/12 11:31:36;;;;;;;1.70;1.10;;;14.00;99.90;;;;;;5011653;28;20118;-20
2023/12/12 11:34:06;;;;;;;1.40;1.08;;;14.00;99.90;;;;;;5023209;28;20186;-21
2023/12/12 11:36:51;;;;;;;1.97;1.10;;;14.00;99.90;;;;;;5012987;28;20037;-21
2023/12/12 11:39:25;;;;;;;2.20;1.08;;;14.00;99.90;;;;;;5027821;28;20025;-20
2023/12/12 11:41:54;;;;;;;4.07;1.00;;;14.10;99.90;;;;;;5001918;28;20170;-21
2023/12/12 11:44:21;;;;;;;2.75;1.05;;;14.00;99.90;;;;;;5026429;28;20546;-20
2023/12/12 11:46:47;;;;;;;1.42;1.10;;;14.10;99.90;;;;;;5006769;28;20021;-21
2023/12/12 11:49:23;;;;;;;1.83;1.00;;;14.10;99.90;;;;;;5015528;28;20070;-19
2023/12/12 11:51:50;;;;;;;1.50;0.90;;;14.10;99.90;;;;;;4994382;28;20040;-20
2023/12/12 11:54:21;;;;;;;1.90;1.30;;;14.10;99.90;;;;;;5029069;28;20036;-20
2023/12/12 11:56:57;;;;;;;3.08;1.60;;;14.10;99.90;;;;;;5001504;28;20461;-21
2023/12/12 11:59:32;;;;;;;2.50;1.17;;;14.10;99.90;;;;;;5031134;28;20611;-19
2023/12/12 12:01:58;;;;;;;1.77;1.05;;;14.10;99.90;;;;;;5003270;28;20218;-20
2023/12/12 12:04:23;;;;;;;2.45;1.30;;;14.10;99.90;;;;;;5023203;28;20132;-20
2023/12/12 12:06:50;;;;;;;1.50;1.10;;;14.10;99.90;;;;;;4998284;28;20482;-20
2023/12/12 12:09:16;;;;;;;2.10;1.40;;;14.10;99.90;;;;;;4997223;28;20059;-20
2023/12/12 12:11:47;;;;;;;2.97;1.40;;;14.00;99.90;;;;;;4999596;28;20083;-21
2023/12/12 12:14:21;;;;;;;1.98;1.20;;;14.00;99.90;;;;;;5011278;28;20045;-24
2023/12/12 12:16:52;;;;;;;2.50;1.60;;;14.00;99.90;;;;;;5002751;28;20049;-23
2023/12/12 12:19:29;;;;;;;2.90;1.50;;;14.10;99.90;;;;;;5020191;28;20037;-23
2023/12/12 12:21:55;;;;;;;2.05;1.40;;;14.00;99.90;;;;;;5023153;28;20289;-23
2023/12/12 12:24:22;;;;;;;1.38;1.02;;;14.00;99.90;;;;;;5013248;28;20125;-21
2023/12/12 12:26:48;;;;;;;1.77;1.00;;;14.00;99.90;;;;;;4985440;28;20067;-19
2023/12/12 12:29:14;;;;;;;2.40;1.20;;;14.00;99.90;;;;;;5029022;28;20086;-20
2023/12/12 12:31:40;;;;;;;1.73;1.20;;;14.00;99.90;;;;;;5001349;28;20029;-20
2023/12/12 12:34:23;;;;;;;1.50;1.13;;;13.90;99.90;;;;;;5018942;28;20083;-20
2023/12/12 12:36:50;;;;;;;2.20;1.20;;;13.90;99.90;;;;;;4979345;28;21423;-20
2023/12/12 12:39:16;;;;;;;1.83;1.10;;;13.80;99.90;;;;;;5007844;28;20040;-20
2023/12/12 12:41:46;;;;;;;2.53;1.33;;;13.80;99.90;;;;;;4977518;28;21502;-19
2023/12/12 12:44:12;;;;;;;1.80;1.30;;;13.80;99.90;;;;;;5020384;28;20026;-19
2023/12/12 12:46:38;;;;;;;2.45;1.80;;;13.80;99.90;;;;;;5025833;28;20676;-19